Laguna de Duero, Spain
Current Conditions -  °F | °C
As of 5:00 PM on Monday 24 Nov 2014 (Local Time) from LEVD Reporting Station
Few Clouds Few Clouds  
Wind Chill: 15°   Ceiling: Unl
Heat Index: 15°   Visibility: 6mi
Dew Point: 10°   Wind: 1mph
Humidity: 72%   Direction: NA
Pressure: 30.06"   Gusts: NA
Location:  41.58°N, 4.72°W
Report Text: LEVD 241600Z VRB01KT 9999 FEW025 15/10 Q1018
Loading
Personal Weather Stations






























Interactive Weather Map New forecast layout! Learn more

10-Day Weather Forecast

Advertisements
Track Severe Weather on mobile